Meade, KS (67864)

1:27 PM CDT on April 26, 2017 (GMT -0500)
ME2734 | | Change Station

Elev 2460 ft 37.18 °N, 100.23 °W | Updated 49 minutes ago

Clear
Clear
49.0 °F
Feels Like 44 °F
N
14.0
Wind Variable Wind from North

Today
High -- | Low -- °F
--% Chance of Precip.
Yesterday
High -- | Low -- °F
Precip. -- in
Pressure 29.76 in
Visibility 9.0 miles
Clouds Few 4200 ft
Windchill 44 °F
Dew Point 34 °F
Humidity 56%
Rainfall 0.11 in
Snow Depth Not available.
6:52 AM 8:26 PM
New Moon, 0% visible
METAR KLBL 261756Z AUTO 34016G25KT 9SM FEW042 12/01 A2978 RMK AO2 PK WND 35030/1715 SLP077 6//// T01170006 10117 20033 56002 TSNO PNO $
Pressure 29.76 in
Visibility 9.0 miles
Clouds Few 4200 ft
Windchill 44 °F
Dew Point 34 °F
Humidity 56%
Rainfall 0.11 in
Snow Depth Not available.
6:52 AM 8:26 PM
New Moon, 0% visible
METAR KLBL 261756Z AUTO 34016G25KT 9SM FEW042 12/01 A2978 RMK AO2 PK WND 35030/1715 SLP077 6//// T01170006 10117 20033 56002 TSNO PNO $

Get Severe Weather Alerts

Thanks for signing up!

Be on the lookout for a verification email in your inbox.

You'll start receiving the daily forecast at 8 AM.

×

10-Day Weather Forecast

Almanac

Astronomy

Apr. 26, 2017 Rise Set
Actual Time
Civil Twilight
Nautical Twilight
Astronomical Twilight
Moon
Length of Visible Light
Length of Day
Tomorrow will be .
, % of the Moon is Illuminated

Today's Extremes

State Highs State Lows

Community

WunderPhotos

WunderBlog® & News

Nearby

Air Quality

  Air Quality AQ Index Pollutant
Not available.

Snow Depth

Station Depth Elevation

Earthquake Activity

City Distance Mag. Time & Date
Minimum magnitude displayed is 2.5.

Coastal Water Temperatures

Place Temperature

Stations

Nearby Weather Stations

Station Location Temp. Windchill Dew Point Humidity Wind Precip. Elev Updated Type
                   

Watches & Warnings

There are currently no watches in effect.